createdAt,value
2018-05-16T00:00:56.135Z,82.70
2018-05-16T00:03:24.450Z,82.20
2018-05-16T00:05:51.982Z,82.20
2018-05-16T00:08:20.310Z,81.80
2018-05-16T00:10:48.603Z,81.90
2018-05-16T00:13:16.926Z,82.00
2018-05-16T00:15:45.223Z,81.90
2018-05-16T00:18:13.545Z,82.10
2018-05-16T00:20:41.847Z,82.40
2018-05-16T00:23:10.179Z,82.30
2018-05-16T00:25:38.479Z,82.10
2018-05-16T00:28:06.811Z,82.00
2018-05-16T00:30:35.101Z,82.40
2018-05-16T00:33:03.420Z,83.20
2018-05-16T00:35:31.713Z,83.80
2018-05-16T00:38:00.042Z,84.20
2018-05-16T00:40:28.338Z,84.30
2018-05-16T00:42:56.657Z,84.60
2018-05-16T00:45:24.954Z,84.50
2018-05-16T00:47:53.271Z,84.40
2018-05-16T00:50:21.571Z,84.40
2018-05-16T00:52:49.890Z,84.30
2018-05-16T00:55:18.190Z,84.70
2018-05-16T00:57:46.510Z,85.00
2018-05-16T01:00:14.801Z,85.50
2018-05-16T01:02:43.115Z,85.50
2018-05-16T01:05:11.410Z,86.40
2018-05-16T01:07:39.743Z,86.10
2018-05-16T01:10:08.040Z,86.20
2018-05-16T01:12:36.368Z,86.40
2018-05-16T01:15:04.659Z,86.60
2018-05-16T01:17:32.995Z,86.50
2018-05-16T01:20:01.299Z,86.00
2018-05-16T01:22:29.630Z,85.70
2018-05-16T01:24:57.930Z,85.90
2018-05-16T01:27:26.250Z,86.20
2018-05-16T01:29:54.551Z,86.20
2018-05-16T01:32:22.871Z,86.30
2018-05-16T01:34:51.171Z,85.80
2018-05-16T01:37:18.721Z,85.80
2018-05-16T01:39:47.015Z,85.20
2018-05-16T01:42:15.341Z,85.60
2018-05-16T01:44:43.636Z,85.60
2018-05-16T01:47:11.952Z,86.00
2018-05-16T01:49:40.270Z,85.70
2018-05-16T01:52:08.567Z,85.60
2018-05-16T01:54:36.888Z,85.70
2018-05-16T01:57:05.185Z,85.90
2018-05-16T01:59:33.503Z,85.70
2018-05-16T02:02:01.814Z,85.40
2018-05-16T02:04:30.131Z,84.80
2018-05-16T02:06:58.430Z,85.40
2018-05-16T02:09:26.755Z,85.90
2018-05-16T02:11:55.057Z,86.10
2018-05-16T02:14:23.365Z,85.90
2018-05-16T02:16:51.662Z,85.60
2018-05-16T02:19:19.983Z,85.50
2018-05-16T02:21:48.278Z,85.70
2018-05-16T02:24:16.594Z,86.10
2018-05-16T02:26:44.889Z,86.10
2018-05-16T02:29:13.215Z,86.40
2018-05-16T02:31:41.518Z,86.40
2018-05-16T02:34:09.868Z,86.20
2018-05-16T02:36:38.162Z,86.00
2018-05-16T02:39:06.480Z,85.70
2018-05-16T02:41:34.781Z,85.70
2018-05-16T02:44:03.098Z,85.70
2018-05-16T02:46:31.399Z,85.50
2018-05-16T02:48:59.716Z,85.20
2018-05-16T02:51:28.011Z,85.20
2018-05-16T02:53:56.336Z,85.30
2018-05-16T02:56:24.635Z,85.50
2018-05-16T02:58:52.201Z,85.60
2018-05-16T03:01:20.502Z,85.80
2018-05-16T03:03:48.823Z,85.90
2018-05-16T03:06:17.127Z,85.60
2018-05-16T03:08:45.447Z,85.70
2018-05-16T03:11:13.734Z,86.10
2018-05-16T03:13:42.047Z,86.80
2018-05-16T03:16:10.351Z,87.40
2018-05-16T03:18:38.672Z,87.70
2018-05-16T03:21:06.975Z,88.40
2018-05-16T03:23:35.296Z,89.10
2018-05-16T03:26:03.595Z,90.00
2018-05-16T03:28:31.892Z,90.20
2018-05-16T03:31:00.205Z,90.30
2018-05-16T03:33:28.502Z,90.60
2018-05-16T03:35:56.823Z,90.90
2018-05-16T03:38:25.123Z,91.10
2018-05-16T03:40:53.447Z,91.30
2018-05-16T03:43:21.756Z,91.50
2018-05-16T03:45:50.073Z,91.70
2018-05-16T03:48:18.380Z,91.80
2018-05-16T03:50:46.709Z,92.00
2018-05-16T03:53:15.030Z,92.30
2018-05-16T03:55:43.352Z,92.60
2018-05-16T03:58:23.418Z,92.70
2018-05-16T04:01:03.635Z,92.80
2018-05-16T04:03:43.779Z,93.00
2018-05-16T04:06:12.098Z,93.00
2018-05-16T04:08:40.395Z,93.00
2018-05-16T04:11:08.714Z,93.00
2018-05-16T04:13:37.119Z,92.90
2018-05-16T04:16:05.337Z,93.00
2018-05-16T04:18:33.638Z,92.90
2018-05-16T04:21:01.956Z,92.90
2018-05-16T04:23:30.250Z,92.80
2018-05-16T04:25:58.570Z,92.90
2018-05-16T04:28:26.863Z,92.90
2018-05-16T04:30:55.175Z,92.90
2018-05-16T04:33:23.470Z,92.90
2018-05-16T04:35:51.778Z,92.90
2018-05-16T04:38:20.082Z,92.80
2018-05-16T04:40:48.402Z,92.80
2018-05-16T04:43:16.719Z,92.70
2018-05-16T04:45:45.057Z,92.60
2018-05-16T04:48:13.350Z,92.70
2018-05-16T04:50:41.679Z,92.60
2018-05-16T04:53:09.987Z,92.50
2018-05-16T04:55:38.303Z,92.40
2018-05-16T04:58:06.595Z,92.30
2018-05-16T05:00:34.922Z,92.30
2018-05-16T05:03:03.223Z,92.20
2018-05-16T05:05:31.542Z,92.10
2018-05-16T05:07:59.834Z,92.10
2018-05-16T05:10:28.160Z,92.00
2018-05-16T05:12:56.467Z,91.90
2018-05-16T05:15:24.786Z,91.90
2018-05-16T05:17:53.089Z,91.70
2018-05-16T05:20:21.417Z,91.60
2018-05-16T05:22:49.724Z,91.70
2018-05-16T05:25:18.058Z,91.50
2018-05-16T05:27:46.359Z,91.70
2018-05-16T05:30:15.325Z,91.60
2018-05-16T05:32:43.647Z,91.50
2018-05-16T05:35:11.948Z,91.60
2018-05-16T05:37:40.270Z,91.60
2018-05-16T05:40:08.567Z,91.60
2018-05-16T05:42:36.892Z,91.50
2018-05-16T05:45:05.191Z,91.50
2018-05-16T05:47:33.520Z,91.40
2018-05-16T05:50:01.821Z,91.40
2018-05-16T05:52:30.167Z,91.30
2018-05-16T05:54:58.479Z,91.30
2018-05-16T05:57:26.793Z,91.30
2018-05-16T05:59:55.115Z,91.20
2018-05-16T06:02:23.431Z,91.10
2018-05-16T06:04:51.732Z,91.00
2018-05-16T06:07:19.283Z,91.00
2018-05-16T06:09:47.578Z,90.70
2018-05-16T06:12:15.898Z,90.50
2018-05-16T06:14:44.240Z,90.10
2018-05-16T06:17:12.563Z,89.20
2018-05-16T06:19:40.965Z,88.00
2018-05-16T06:22:09.195Z,87.60
2018-05-16T06:24:37.490Z,86.90
2018-05-16T06:27:05.914Z,86.60
2018-05-16T06:29:34.129Z,85.80
2018-05-16T06:32:02.455Z,85.70
2018-05-16T06:34:30.752Z,85.60
2018-05-16T06:36:59.075Z,85.30
2018-05-16T06:39:27.380Z,84.60
2018-05-16T06:41:55.694Z,83.20
2018-05-16T06:44:23.996Z,81.60
2018-05-16T06:46:51.551Z,81.60
2018-05-16T06:49:19.848Z,79.70
2018-05-16T06:51:48.158Z,78.40
2018-05-16T06:54:16.454Z,78.50
2018-05-16T06:56:44.803Z,77.00
2018-05-16T06:59:13.090Z,74.80
2018-05-16T07:01:41.409Z,71.70
2018-05-16T07:04:09.756Z,68.60
2018-05-16T07:06:38.039Z,66.50
2018-05-16T07:09:06.334Z,64.60
2018-05-16T07:11:34.666Z,63.40
2018-05-16T07:14:02.970Z,63.20
2018-05-16T07:16:31.261Z,63.10
2018-05-16T07:18:59.579Z,63.20
2018-05-16T07:21:27.872Z,62.50
2018-05-16T07:23:56.220Z,61.50
2018-05-16T07:26:24.511Z,60.80
2018-05-16T07:28:52.821Z,62.00
2018-05-16T07:31:21.123Z,60.10
2018-05-16T07:33:49.436Z,61.10
2018-05-16T07:36:17.731Z,59.90
2018-05-16T07:38:46.052Z,59.90
2018-05-16T07:41:14.455Z,60.10
2018-05-16T07:43:42.698Z,60.10
2018-05-16T07:46:10.991Z,60.80
2018-05-16T07:48:39.303Z,61.00
2018-05-16T07:51:07.606Z,59.40
2018-05-16T07:53:35.927Z,57.70
2018-05-16T07:56:04.340Z,56.40
2018-05-16T07:58:32.623Z,54.90
2018-05-16T08:01:00.923Z,54.40
2018-05-16T08:03:29.242Z,54.60
2018-05-16T08:05:57.535Z,54.40
2018-05-16T08:08:25.860Z,55.10
2018-05-16T08:10:54.155Z,55.90
2018-05-16T08:13:22.474Z,55.00
2018-05-16T08:15:50.766Z,54.00
2018-05-16T08:18:19.082Z,53.60
2018-05-16T08:20:47.382Z,53.60
2018-05-16T08:23:15.707Z,54.40
2018-05-16T08:25:43.991Z,54.80
2018-05-16T08:28:12.305Z,55.10
2018-05-16T08:30:40.594Z,56.20
2018-05-16T08:33:08.914Z,56.50
2018-05-16T08:35:37.210Z,56.20
2018-05-16T08:38:05.523Z,56.20
2018-05-16T08:40:33.814Z,55.60
2018-05-16T08:43:02.212Z,55.40
2018-05-16T08:45:30.828Z,54.40
2018-05-16T08:47:59.143Z,54.10
2018-05-16T08:50:28.378Z,53.90
2018-05-16T08:52:56.712Z,53.90
2018-05-16T08:55:25.010Z,54.40
2018-05-16T08:57:53.308Z,54.30
2018-05-16T09:00:21.631Z,54.30
2018-05-16T09:02:49.930Z,54.60
2018-05-16T09:05:18.249Z,54.80
2018-05-16T09:07:46.551Z,55.10
2018-05-16T09:10:14.864Z,53.70
2018-05-16T09:12:43.179Z,53.10
2018-05-16T09:15:11.493Z,52.10
2018-05-16T09:17:39.787Z,51.30
2018-05-16T09:20:08.107Z,50.80
2018-05-16T09:22:36.395Z,50.70
2018-05-16T09:25:08.011Z,49.50
2018-05-16T09:27:36.317Z,49.80
2018-05-16T09:30:04.639Z,49.50
2018-05-16T09:32:32.931Z,49.00
2018-05-16T09:35:01.255Z,48.20
2018-05-16T09:37:29.559Z,48.60
2018-05-16T09:39:57.879Z,48.90
2018-05-16T09:42:26.177Z,49.50
2018-05-16T09:44:54.495Z,49.80
2018-05-16T09:47:22.788Z,50.30
2018-05-16T09:49:51.107Z,50.90
2018-05-16T09:52:19.407Z,51.70
2018-05-16T09:54:47.719Z,50.30
2018-05-16T09:57:16.015Z,50.10
2018-05-16T09:59:45.330Z,49.60
2018-05-16T10:02:13.623Z,49.40
2018-05-16T10:04:41.944Z,48.70
2018-05-16T10:07:10.243Z,48.90
2018-05-16T10:09:38.616Z,48.50
2018-05-16T10:12:06.866Z,48.30
2018-05-16T10:14:35.180Z,48.20
2018-05-16T10:17:03.580Z,47.20
2018-05-16T10:19:31.809Z,46.90
2018-05-16T10:22:00.119Z,47.00
2018-05-16T10:24:28.437Z,47.70
2018-05-16T10:26:56.727Z,47.70
2018-05-16T10:29:25.038Z,47.90
2018-05-16T10:31:53.331Z,47.90
2018-05-16T10:34:21.647Z,47.90
2018-05-16T10:36:49.939Z,47.40
2018-05-16T10:39:17.786Z,46.60
2018-05-16T10:41:46.086Z,47.40
2018-05-16T10:44:14.390Z,48.50
2018-05-16T10:46:41.938Z,48.50
2018-05-16T10:49:09.471Z,48.50
2018-05-16T10:51:37.788Z,49.30
2018-05-16T10:54:06.086Z,49.30
2018-05-16T10:56:34.422Z,50.00
2018-05-16T10:59:02.721Z,50.50
2018-05-16T11:01:31.039Z,50.60
2018-05-16T11:03:59.334Z,50.40
2018-05-16T11:06:27.662Z,49.30
2018-05-16T11:08:55.963Z,48.90
2018-05-16T11:11:24.282Z,48.90
2018-05-16T11:13:52.574Z,49.50
2018-05-16T11:16:20.122Z,49.50
2018-05-16T11:18:48.423Z,50.20
2018-05-16T11:21:16.843Z,50.30
2018-05-16T11:23:45.282Z,51.10
2018-05-16T11:26:13.601Z,51.10
2018-05-16T11:28:41.895Z,50.80
2018-05-16T11:31:10.219Z,50.10
2018-05-16T11:33:38.510Z,49.90
2018-05-16T11:36:06.839Z,49.30
2018-05-16T11:38:35.139Z,50.00
2018-05-16T11:41:03.439Z,50.80
2018-05-16T11:43:31.799Z,51.30
2018-05-16T11:46:00.103Z,50.20
2018-05-16T11:48:28.423Z,50.10
2018-05-16T11:50:56.714Z,50.30
2018-05-16T11:53:25.028Z,50.00
2018-05-16T11:55:53.321Z,49.60
2018-05-16T11:58:21.656Z,49.50
2018-05-16T12:00:49.951Z,49.70
2018-05-16T12:03:18.269Z,49.90
2018-05-16T12:05:46.575Z,51.00
2018-05-16T12:08:14.903Z,50.60
2018-05-16T12:10:43.206Z,51.00
2018-05-16T12:13:11.527Z,51.30
2018-05-16T12:15:39.820Z,52.10
2018-05-16T12:18:08.144Z,52.20
2018-05-16T12:20:36.464Z,52.50
2018-05-16T12:23:04.782Z,53.10
2018-05-16T12:25:33.085Z,53.60
2018-05-16T12:28:01.400Z,54.00
2018-05-16T12:30:29.707Z,54.10
2018-05-16T12:32:58.023Z,53.70
2018-05-16T12:35:26.318Z,53.70
2018-05-16T12:37:54.683Z,53.80
2018-05-16T12:40:22.999Z,53.40
2018-05-16T12:43:03.235Z,52.80
2018-05-16T12:45:31.527Z,52.30
2018-05-16T12:47:59.836Z,50.70
2018-05-16T12:50:28.166Z,50.30
2018-05-16T12:52:56.462Z,49.70
2018-05-16T12:55:24.779Z,50.40
2018-05-16T12:57:53.079Z,50.20
2018-05-16T13:00:21.398Z,50.80
2018-05-16T13:02:49.690Z,50.80
2018-05-16T13:05:18.011Z,50.30
2018-05-16T13:07:46.306Z,50.50
2018-05-16T13:10:14.623Z,49.60
2018-05-16T13:12:42.919Z,49.90
2018-05-16T13:15:10.467Z,49.90
2018-05-16T13:17:38.858Z,46.60
2018-05-16T13:20:07.111Z,46.20
2018-05-16T13:22:35.415Z,45.70
2018-05-16T13:25:03.743Z,46.30
2018-05-16T13:27:32.059Z,46.00
2018-05-16T13:30:00.374Z,46.20
2018-05-16T13:32:28.670Z,46.80
2018-05-16T13:34:56.987Z,48.20
2018-05-16T13:37:24.518Z,48.20
2018-05-16T13:39:52.071Z,49.30
2018-05-16T13:42:20.378Z,50.80
2018-05-16T13:44:48.694Z,49.30
2018-05-16T13:47:16.391Z,49.40
2018-05-16T13:49:44.746Z,49.80
2018-05-16T13:52:13.043Z,50.90
2018-05-16T13:54:41.354Z,51.80
2018-05-16T13:57:09.657Z,53.00
2018-05-16T13:59:37.970Z,54.30
2018-05-16T14:02:06.275Z,55.70
2018-05-16T14:04:34.586Z,57.00
2018-05-16T14:07:02.120Z,57.00
2018-05-16T14:09:30.441Z,60.40
2018-05-16T14:11:58.736Z,61.50
2018-05-16T14:14:28.002Z,63.30
2018-05-16T14:16:56.322Z,64.20
2018-05-16T14:19:24.625Z,63.70
2018-05-16T14:21:52.953Z,64.70
2018-05-16T14:24:21.252Z,65.80
2018-05-16T14:26:49.567Z,65.70
2018-05-16T14:29:17.861Z,65.40
2018-05-16T14:31:47.058Z,65.50
2018-05-16T14:34:15.355Z,65.10
2018-05-16T14:36:43.678Z,64.80
2018-05-16T14:39:11.970Z,63.40
2018-05-16T14:41:40.283Z,65.30
2018-05-16T14:44:08.586Z,67.20
2018-05-16T14:46:36.896Z,68.60
2018-05-16T14:49:05.195Z,69.70
2018-05-16T14:51:33.506Z,70.60
2018-05-16T14:54:01.812Z,71.40
2018-05-16T14:56:30.139Z,73.00
2018-05-16T14:58:58.441Z,72.40
2018-05-16T15:01:26.759Z,71.80
2018-05-16T15:03:55.050Z,71.30
2018-05-16T15:06:23.362Z,71.30
2018-05-16T15:08:51.651Z,72.20
2018-05-16T15:11:19.971Z,71.10
2018-05-16T15:13:48.266Z,71.60
2018-05-16T15:16:16.581Z,71.60
2018-05-16T15:18:44.119Z,71.60
2018-05-16T15:21:12.447Z,70.30
2018-05-16T15:23:40.751Z,70.20
2018-05-16T15:26:09.063Z,71.10
2018-05-16T15:28:37.358Z,71.70
2018-05-16T15:31:05.679Z,73.00
2018-05-16T15:33:33.990Z,72.90
2018-05-16T15:36:02.306Z,73.40
2018-05-16T15:38:30.808Z,74.30
2018-05-16T15:40:58.941Z,74.60
2018-05-16T15:43:27.238Z,73.60
2018-05-16T15:45:55.559Z,74.20
2018-05-16T15:48:23.855Z,74.20
2018-05-16T15:50:52.186Z,74.80
2018-05-16T15:53:20.489Z,75.00
2018-05-16T15:55:48.792Z,75.90
2018-05-16T15:58:17.108Z,75.60
2018-05-16T16:00:45.409Z,75.60
2018-05-16T16:03:13.727Z,75.70
2018-05-16T16:05:42.022Z,77.40
2018-05-16T16:08:10.349Z,76.50
2018-05-16T16:10:38.651Z,76.20
2018-05-16T16:13:06.970Z,76.60
2018-05-16T16:15:35.268Z,76.60
2018-05-16T16:18:02.820Z,76.60
2018-05-16T16:20:30.351Z,75.50
2018-05-16T16:22:58.666Z,75.30
2018-05-16T16:25:26.979Z,75.30
2018-05-16T16:27:54.540Z,75.30
2018-05-16T16:30:22.844Z,77.20
2018-05-16T16:32:51.170Z,78.30
2018-05-16T16:35:19.466Z,79.20
2018-05-16T16:37:47.787Z,80.10
2018-05-16T16:40:16.079Z,80.40
2018-05-16T16:42:44.401Z,81.00
2018-05-16T16:45:12.700Z,81.80
2018-05-16T16:47:41.013Z,82.90
2018-05-16T16:50:09.359Z,82.90
2018-05-16T16:52:37.641Z,82.80
2018-05-16T16:55:05.951Z,83.20
2018-05-16T16:57:34.275Z,82.90
2018-05-16T17:00:02.611Z,82.50
2018-05-16T17:02:30.953Z,82.90
2018-05-16T17:04:59.251Z,83.30
2018-05-16T17:07:27.638Z,83.80
2018-05-16T17:09:55.926Z,84.60
2018-05-16T17:12:24.244Z,85.50
2018-05-16T17:14:52.548Z,86.10
2018-05-16T17:17:20.864Z,86.40
2018-05-16T17:19:49.163Z,86.80
2018-05-16T17:22:16.710Z,86.80
2018-05-16T17:24:45.024Z,88.00
2018-05-16T17:27:13.340Z,87.70
2018-05-16T17:29:41.640Z,87.90
2018-05-16T17:32:09.943Z,88.70
2018-05-16T17:34:38.266Z,89.50
2018-05-16T17:37:06.567Z,90.20
2018-05-16T17:39:34.907Z,90.80
2018-05-16T17:42:03.218Z,91.30
2018-05-16T17:44:31.535Z,91.20
2018-05-16T17:46:59.845Z,91.40
2018-05-16T17:49:28.176Z,91.50
2018-05-16T17:51:56.475Z,91.20
2018-05-16T17:54:24.792Z,90.80
2018-05-16T17:56:53.088Z,90.80
2018-05-16T17:59:20.639Z,90.70
2018-05-16T18:01:48.930Z,91.20
2018-05-16T18:04:17.238Z,91.40
2018-05-16T18:06:45.534Z,91.40
2018-05-16T18:09:13.851Z,91.60
2018-05-16T18:11:42.150Z,91.80
2018-05-16T18:14:22.355Z,92.10
2018-05-16T18:17:02.702Z,92.40
2018-05-16T18:19:30.999Z,92.50
2018-05-16T18:21:59.398Z,92.60
2018-05-16T18:24:27.724Z,92.60
2018-05-16T18:26:56.018Z,92.80
2018-05-16T18:29:24.375Z,93.20
2018-05-16T18:31:52.679Z,93.50
2018-05-16T18:34:21.051Z,94.00
2018-05-16T18:36:48.602Z,94.00
2018-05-16T18:39:16.939Z,94.80
2018-05-16T18:41:45.326Z,94.70
2018-05-16T18:44:13.672Z,94.70
2018-05-16T18:46:41.982Z,94.80
2018-05-16T18:49:10.326Z,94.00
2018-05-16T18:51:38.710Z,93.80
2018-05-16T18:54:07.164Z,93.70
2018-05-16T18:56:35.519Z,93.60
2018-05-16T18:59:03.880Z,93.70
2018-05-16T19:01:32.320Z,93.60
2018-05-16T19:04:00.725Z,93.90
2018-05-16T19:06:29.056Z,93.90
2018-05-16T19:08:57.405Z,94.00
2018-05-16T19:11:25.798Z,94.30
2018-05-16T19:13:54.140Z,94.50
2018-05-16T19:16:22.467Z,94.50
2018-05-16T19:18:50.848Z,94.50
2018-05-16T19:21:19.202Z,94.30
2018-05-16T19:23:47.523Z,94.00
2018-05-16T19:26:15.844Z,93.80
2018-05-16T19:28:44.227Z,93.90
2018-05-16T19:31:12.549Z,94.00
2018-05-16T19:33:40.926Z,94.20
2018-05-16T19:36:09.348Z,94.40
2018-05-16T19:38:37.702Z,94.50
2018-05-16T19:41:06.128Z,94.70
2018-05-16T19:43:34.431Z,94.80
2018-05-16T19:46:02.909Z,94.90
2018-05-16T19:48:31.141Z,94.80
2018-05-16T19:50:59.456Z,94.90
2018-05-16T19:53:27.768Z,94.80
2018-05-16T19:55:56.103Z,94.90
2018-05-16T19:58:24.453Z,95.10
2018-05-16T20:00:52.782Z,95.30
2018-05-16T20:03:21.157Z,95.30
2018-05-16T20:05:49.482Z,95.20
2018-05-16T20:08:17.832Z,95.20
2018-05-16T20:10:46.160Z,95.20
2018-05-16T20:13:14.459Z,95.20
2018-05-16T20:15:42.790Z,95.30
2018-05-16T20:18:11.149Z,95.30
2018-05-16T20:20:40.405Z,95.40
2018-05-16T20:23:08.709Z,95.30
2018-05-16T20:25:37.036Z,95.40
2018-05-16T20:28:05.361Z,95.40
2018-05-16T20:30:33.663Z,95.50
2018-05-16T20:33:01.988Z,95.20
2018-05-16T20:35:30.291Z,95.20
2018-05-16T20:37:58.614Z,95.10
2018-05-16T20:40:26.911Z,95.10
2018-05-16T20:42:55.227Z,95.10
2018-05-16T20:45:23.602Z,95.00
2018-05-16T20:47:51.867Z,94.90
2018-05-16T20:50:20.182Z,95.00
2018-05-16T20:52:48.495Z,95.10
2018-05-16T20:55:16.787Z,95.10
2018-05-16T20:57:45.197Z,95.20
2018-05-16T21:00:13.450Z,95.30
2018-05-16T21:02:41.770Z,95.40
2018-05-16T21:05:09.626Z,95.30
2018-05-16T21:07:37.943Z,95.30
2018-05-16T21:10:06.235Z,95.50
2018-05-16T21:12:34.558Z,95.50
2018-05-16T21:15:02.859Z,95.50
2018-05-16T21:17:31.178Z,95.60
2018-05-16T21:19:59.473Z,95.60
2018-05-16T21:22:27.940Z,95.60
2018-05-16T21:24:56.251Z,95.60
2018-05-16T21:27:24.579Z,95.60
2018-05-16T21:29:52.878Z,95.60
2018-05-16T21:32:21.199Z,95.70
2018-05-16T21:34:49.502Z,95.70
2018-05-16T21:37:17.820Z,95.90
2018-05-16T21:39:46.123Z,96.00
2018-05-16T21:42:14.443Z,95.90
2018-05-16T21:44:42.737Z,95.90
2018-05-16T21:47:11.035Z,96.00
2018-05-16T21:49:39.354Z,96.00
2018-05-16T21:52:07.668Z,95.90
2018-05-16T21:54:35.994Z,96.00
2018-05-16T21:57:04.307Z,96.10
2018-05-16T21:59:32.618Z,96.20
2018-05-16T22:02:00.923Z,96.30
2018-05-16T22:04:29.246Z,95.90
2018-05-16T22:06:57.550Z,96.20
2018-05-16T22:09:25.862Z,96.20
2018-05-16T22:11:54.168Z,96.10
2018-05-16T22:14:22.485Z,96.20
2018-05-16T22:16:50.790Z,96.30
2018-05-16T22:19:19.106Z,96.40
2018-05-16T22:21:46.642Z,96.30
2018-05-16T22:24:14.966Z,96.30
2018-05-16T22:26:43.274Z,96.00
2018-05-16T22:29:11.607Z,95.80
2018-05-16T22:31:45.638Z,95.40
2018-05-16T22:34:19.627Z,95.40
2018-05-16T22:36:53.511Z,95.30
2018-05-16T22:39:27.574Z,95.40
2018-05-16T22:42:01.687Z,95.60
2018-05-16T22:44:48.719Z,95.70
2018-05-16T22:47:17.018Z,96.00
2018-05-16T22:49:45.319Z,96.00
2018-05-16T22:52:13.639Z,96.00
2018-05-16T22:54:41.943Z,95.80
2018-05-16T22:57:09.494Z,95.80
2018-05-16T22:59:37.781Z,95.80
2018-05-16T23:02:06.102Z,95.70
2018-05-16T23:04:34.397Z,95.80
2018-05-16T23:07:02.719Z,95.80
2018-05-16T23:09:31.023Z,95.60
2018-05-16T23:11:59.345Z,95.50
2018-05-16T23:14:27.633Z,95.20
2018-05-16T23:16:55.956Z,94.90
2018-05-16T23:19:24.254Z,94.80
2018-05-16T23:21:52.571Z,94.60
2018-05-16T23:24:20.879Z,94.50
2018-05-16T23:26:49.207Z,94.10
2018-05-16T23:29:17.503Z,94.00
2018-05-16T23:31:45.804Z,93.90
2018-05-16T23:34:14.119Z,93.70
2018-05-16T23:36:42.414Z,93.60
2018-05-16T23:39:10.739Z,93.50
2018-05-16T23:41:38.275Z,93.10
2018-05-16T23:44:06.599Z,93.60
2018-05-16T23:46:34.898Z,93.70
2018-05-16T23:49:02.446Z,93.70
2018-05-16T23:51:30.753Z,93.90
2018-05-16T23:53:59.071Z,93.90
2018-05-16T23:56:26.594Z,93.90
2018-05-16T23:58:54.910Z,93.90
